createdAt,value
2017-11-17T00:00:57.321Z,23.42
2017-11-17T00:03:26.563Z,24.00
2017-11-17T00:05:55.814Z,24.67
2017-11-17T00:08:25.088Z,22.98
2017-11-17T00:10:54.436Z,24.87
2017-11-17T00:13:23.672Z,22.80
2017-11-17T00:15:53.013Z,22.17
2017-11-17T00:18:22.255Z,21.23
2017-11-17T00:20:51.508Z,22.13
2017-11-17T00:23:20.779Z,25.25
2017-11-17T00:25:50.794Z,23.20
2017-11-17T00:28:20.844Z,22.77
2017-11-17T00:30:50.106Z,23.00
2017-11-17T00:33:19.353Z,23.45
2017-11-17T00:35:48.596Z,24.58
2017-11-17T00:38:17.887Z,23.95
2017-11-17T00:40:47.132Z,24.50
2017-11-17T00:43:16.373Z,23.20
2017-11-17T00:45:45.649Z,24.83
2017-11-17T00:48:14.900Z,23.33
2017-11-17T00:50:44.164Z,21.85
2017-11-17T00:53:13.428Z,23.45
2017-11-17T00:55:42.665Z,24.87
2017-11-17T00:58:12.020Z,24.52
2017-11-17T01:00:41.286Z,23.50
2017-11-17T01:03:10.527Z,23.27
2017-11-17T01:05:39.824Z,24.70
2017-11-17T01:08:09.076Z,24.85
2017-11-17T01:10:38.324Z,26.02
2017-11-17T01:13:07.610Z,25.05
2017-11-17T01:15:37.618Z,23.58
2017-11-17T01:18:06.869Z,22.73
2017-11-17T01:20:36.178Z,24.58
2017-11-17T01:23:05.427Z,24.37
2017-11-17T01:25:34.693Z,24.58
2017-11-17T01:28:03.976Z,24.90
2017-11-17T01:30:33.261Z,22.98
2017-11-17T01:33:02.509Z,24.85
2017-11-17T01:35:31.796Z,24.67
2017-11-17T01:38:01.033Z,23.08
2017-11-17T01:40:31.088Z,25.62
2017-11-17T01:43:00.338Z,23.55
2017-11-17T01:45:29.589Z,23.08
2017-11-17T01:47:58.865Z,26.10
2017-11-17T01:50:28.129Z,23.38
2017-11-17T01:52:57.400Z,23.73
2017-11-17T01:55:26.666Z,24.45
2017-11-17T01:57:55.923Z,26.65
2017-11-17T02:03:45.430Z,22.50
2017-11-17T02:06:17.184Z,23.10
2017-11-17T02:08:47.441Z,22.37
2017-11-17T02:11:18.360Z,24.25
2017-11-17T02:13:52.114Z,24.65
2017-11-17T02:16:22.276Z,23.65
2017-11-17T02:18:53.328Z,23.50
2017-11-17T02:21:26.545Z,24.73
2017-11-17T02:23:58.830Z,23.77
2017-11-17T02:26:33.505Z,23.75
2017-11-17T02:29:05.662Z,24.90
2017-11-17T02:31:37.407Z,25.02
2017-11-17T02:34:08.217Z,24.17
2017-11-17T02:36:39.158Z,22.95
2017-11-17T02:39:15.669Z,22.95
2017-11-17T02:41:47.528Z,25.65
2017-11-17T02:44:18.587Z,23.45
2017-11-17T02:46:48.782Z,24.17
2017-11-17T02:49:20.711Z,23.23
2017-11-17T02:51:52.426Z,24.35
2017-11-17T02:54:25.619Z,24.00
2017-11-17T02:56:58.565Z,23.20
2017-11-17T02:59:29.304Z,23.00
2017-11-17T03:02:01.247Z,23.05
2017-11-17T03:04:33.247Z,23.10
2017-11-17T03:07:04.196Z,23.42
2017-11-17T03:09:35.847Z,23.77
2017-11-17T03:12:07.733Z,22.87
2017-11-17T03:14:39.136Z,23.80
2017-11-17T03:17:11.144Z,23.05
2017-11-17T03:19:42.871Z,24.30
2017-11-17T03:22:15.468Z,24.15
2017-11-17T03:24:45.626Z,21.98
2017-11-17T03:27:16.895Z,21.42
2017-11-17T03:29:49.375Z,22.62
2017-11-17T03:32:19.231Z,23.65
2017-11-17T03:34:50.306Z,22.80
2017-11-17T03:37:20.115Z,23.52
2017-11-17T03:39:51.217Z,22.48
2017-11-17T03:42:22.197Z,24.42
2017-11-17T03:44:54.328Z,21.90
2017-11-17T03:47:26.112Z,23.67
2017-11-17T03:49:57.697Z,21.30
2017-11-17T03:52:27.638Z,23.23
2017-11-17T03:54:59.611Z,25.95
2017-11-17T03:57:30.877Z,24.30
2017-11-17T04:00:05.590Z,22.85
2017-11-17T04:02:36.377Z,25.30
2017-11-17T04:05:08.662Z,26.35
2017-11-17T04:07:39.784Z,25.10
2017-11-17T04:10:12.334Z,24.75
2017-11-17T04:12:46.241Z,25.30
2017-11-17T04:15:17.048Z,23.20
2017-11-17T04:17:50.886Z,24.25
2017-11-17T04:20:23.257Z,24.37
2017-11-17T04:22:57.952Z,22.95
2017-11-17T04:25:30.325Z,25.35
2017-11-17T04:28:02.437Z,25.95
2017-11-17T04:30:33.202Z,25.37
2017-11-17T04:33:06.219Z,24.85
2017-11-17T04:35:37.853Z,26.62
2017-11-17T04:38:08.090Z,27.35
2017-11-17T04:40:42.373Z,27.42
2017-11-17T04:43:13.585Z,28.58
2017-11-17T04:45:48.754Z,27.70
2017-11-17T04:48:19.746Z,26.75
2017-11-17T04:50:52.715Z,28.60
2017-11-17T04:53:24.211Z,28.95
2017-11-17T04:55:56.313Z,30.55
2017-11-17T04:58:29.628Z,31.35
2017-11-17T05:01:00.665Z,28.73
2017-11-17T05:03:35.455Z,29.67
2017-11-17T05:06:11.127Z,31.42
2017-11-17T05:08:46.428Z,28.30
2017-11-17T05:11:21.720Z,28.33
2017-11-17T05:13:58.825Z,30.15
2017-11-17T05:16:48.487Z,27.73
2017-11-17T05:19:23.634Z,32.05
2017-11-17T05:21:56.222Z,32.05
2017-11-17T05:24:27.595Z,29.08
2017-11-17T05:30:03.594Z,30.85
2017-11-17T05:32:33.818Z,32.15
2017-11-17T05:35:05.520Z,30.15
2017-11-17T05:37:41.345Z,28.92
2017-11-17T05:40:18.663Z,29.77
2017-11-17T05:42:53.304Z,28.58
2017-11-17T05:48:04.523Z,30.10
2017-11-17T05:50:35.711Z,28.15
2017-11-17T05:53:08.555Z,28.33
2017-11-17T05:55:41.716Z,27.33
2017-11-17T05:58:13.625Z,30.42
2017-11-17T06:00:45.248Z,28.83
2017-11-17T06:03:15.524Z,28.55
2017-11-17T06:05:48.532Z,27.15
2017-11-17T06:08:18.766Z,27.37
2017-11-17T06:10:52.729Z,28.45
2017-11-17T06:13:24.063Z,28.35
2017-11-17T06:15:54.035Z,30.27
2017-11-17T06:18:30.894Z,30.20
2017-11-17T06:21:04.235Z,29.30
2017-11-17T06:23:38.357Z,31.08
2017-11-17T06:26:09.421Z,29.80
2017-11-17T06:28:41.990Z,29.75
2017-11-17T06:31:12.370Z,31.85
2017-11-17T06:33:43.140Z,29.50
2017-11-17T06:36:16.155Z,31.77
2017-11-17T06:38:46.970Z,32.40
2017-11-17T06:41:18.104Z,29.35
2017-11-17T06:43:49.153Z,29.95
2017-11-17T06:46:20.077Z,31.12
2017-11-17T06:48:52.698Z,32.72
2017-11-17T06:51:25.123Z,32.33
2017-11-17T06:53:58.907Z,29.77
2017-11-17T06:56:32.543Z,30.70
2017-11-17T06:59:03.957Z,29.67
2017-11-17T07:01:34.353Z,29.58
2017-11-17T07:04:04.192Z,29.00
2017-11-17T07:06:34.121Z,34.38
2017-11-17T07:09:05.466Z,27.45
2017-11-17T07:11:35.798Z,31.52
2017-11-17T07:14:09.153Z,30.42
2017-11-17T07:16:39.235Z,29.45
2017-11-17T07:21:55.838Z,33.08
2017-11-17T07:24:33.368Z,32.55
2017-11-17T07:27:05.318Z,29.20
2017-11-17T07:32:38.511Z,35.50
2017-11-17T07:35:10.215Z,30.58
2017-11-17T07:40:17.648Z,30.77
2017-11-17T07:42:48.347Z,29.67
2017-11-17T07:45:18.820Z,30.73
2017-11-17T07:47:49.644Z,32.22
2017-11-17T07:50:21.881Z,30.83
2017-11-17T07:52:52.765Z,28.38
2017-11-17T07:55:25.119Z,29.42
2017-11-17T07:57:57.576Z,29.85
2017-11-17T08:00:30.156Z,30.33
2017-11-17T08:03:02.855Z,29.58
2017-11-17T08:05:34.264Z,30.00
2017-11-17T08:08:05.317Z,30.70
2017-11-17T08:10:35.873Z,30.05
2017-11-17T08:13:06.431Z,32.92
2017-11-17T08:15:37.138Z,32.05
2017-11-17T08:18:24.557Z,29.25
2017-11-17T08:20:54.276Z,32.47
2017-11-17T08:23:24.900Z,32.35
2017-11-17T08:25:54.499Z,32.88
2017-11-17T08:28:26.559Z,33.25
2017-11-17T08:30:58.050Z,32.17
2017-11-17T08:33:28.969Z,31.92
2017-11-17T08:36:01.215Z,30.17
2017-11-17T08:38:32.441Z,32.55
2017-11-17T08:41:05.473Z,33.60
2017-11-17T08:43:39.440Z,34.42
2017-11-17T08:46:11.907Z,35.05
2017-11-17T08:48:42.906Z,33.67
2017-11-17T08:51:15.315Z,33.30
2017-11-17T08:53:49.757Z,31.27
2017-11-17T08:56:19.874Z,32.00
2017-11-17T08:58:52.577Z,32.47
2017-11-17T09:01:22.917Z,31.52
2017-11-17T09:03:54.688Z,30.05
2017-11-17T09:06:28.078Z,30.10
2017-11-17T09:09:00.361Z,29.92
2017-11-17T09:11:36.422Z,27.40
2017-11-17T09:14:08.757Z,30.85
2017-11-17T09:16:41.022Z,32.70
2017-11-17T09:19:11.778Z,30.23
2017-11-17T09:21:44.647Z,29.12
2017-11-17T09:24:15.027Z,30.50
2017-11-17T09:26:47.175Z,30.83
2017-11-17T09:29:18.527Z,28.55
2017-11-17T09:31:51.081Z,31.62
2017-11-17T09:34:23.845Z,31.73
2017-11-17T09:36:57.218Z,32.67
2017-11-17T09:39:30.983Z,32.03
2017-11-17T09:42:04.994Z,30.98
2017-11-17T09:44:36.230Z,31.30
2017-11-17T09:47:08.060Z,31.55
2017-11-17T09:49:41.051Z,31.05
2017-11-17T09:52:14.215Z,32.20
2017-11-17T09:54:48.457Z,32.67
2017-11-17T09:57:23.012Z,30.60
2017-11-17T09:59:53.491Z,31.85
2017-11-17T10:02:24.062Z,30.85
2017-11-17T10:04:54.905Z,34.75
2017-11-17T10:07:25.408Z,32.90
2017-11-17T10:09:56.491Z,31.25
2017-11-17T10:12:28.380Z,33.60
2017-11-17T10:14:58.910Z,32.60
2017-11-17T10:17:28.894Z,33.97
2017-11-17T10:19:58.999Z,31.75
2017-11-17T10:22:29.756Z,32.13
2017-11-17T10:24:59.987Z,32.38
2017-11-17T10:27:31.615Z,32.83
2017-11-17T10:30:01.552Z,31.35
2017-11-17T10:32:31.507Z,33.42
2017-11-17T10:35:03.737Z,34.35
2017-11-17T10:37:37.564Z,32.83
2017-11-17T10:40:13.384Z,33.55
2017-11-17T10:42:46.027Z,35.70
2017-11-17T10:45:25.954Z,36.60
2017-11-17T10:47:55.885Z,33.38
2017-11-17T10:50:29.943Z,32.55
2017-11-17T10:53:00.971Z,36.15
2017-11-17T10:55:31.189Z,36.30
2017-11-17T10:58:01.461Z,34.45
2017-11-17T11:00:32.937Z,35.35
2017-11-17T11:03:05.212Z,36.83
2017-11-17T11:05:37.107Z,32.15
2017-11-17T11:08:07.865Z,35.60
2017-11-17T11:10:39.427Z,37.20
2017-11-17T11:13:09.269Z,35.78
2017-11-17T11:15:39.127Z,34.00
2017-11-17T11:18:13.693Z,32.28
2017-11-17T11:20:44.986Z,34.30
2017-11-17T11:23:19.132Z,33.70
2017-11-17T11:28:35.574Z,34.42
2017-11-17T11:31:07.773Z,32.63
2017-11-17T11:33:43.571Z,34.40
2017-11-17T11:36:18.338Z,34.90
2017-11-17T11:38:55.011Z,34.58
2017-11-17T11:41:33.054Z,36.33
2017-11-17T11:44:16.072Z,37.45
2017-11-17T11:47:00.705Z,34.17
2017-11-17T11:52:17.922Z,43.95
2017-11-17T11:55:02.678Z,38.58
2017-11-17T11:57:33.804Z,36.22
2017-11-17T12:00:16.706Z,35.00
2017-11-17T12:02:48.908Z,35.33
2017-11-17T12:05:25.980Z,38.50
2017-11-17T12:08:01.039Z,32.60
2017-11-17T12:14:10.430Z,34.03
2017-11-17T12:16:39.713Z,34.72
2017-11-17T12:19:09.013Z,34.63
2017-11-17T12:21:38.278Z,34.40
2017-11-17T12:24:07.582Z,34.72
2017-11-17T12:26:37.472Z,34.20
2017-11-17T12:29:08.888Z,35.35
2017-11-17T12:31:40.527Z,34.78
2017-11-17T12:34:10.994Z,33.35
2017-11-17T12:36:40.258Z,35.03
2017-11-17T12:39:09.534Z,37.85
2017-11-17T12:44:56.389Z,36.80
2017-11-17T12:47:26.404Z,43.85
2017-11-17T12:49:56.550Z,38.78
2017-11-17T12:52:26.574Z,38.42
2017-11-17T12:54:55.909Z,38.38
2017-11-17T12:57:25.190Z,40.40
2017-11-17T12:59:54.441Z,38.78
2017-11-17T13:03:12.194Z,38.33
2017-11-17T13:05:49.074Z,37.80
2017-11-17T13:08:18.396Z,38.67
2017-11-17T13:10:47.664Z,37.75
2017-11-17T13:13:17.748Z,39.95
2017-11-17T13:15:47.730Z,38.58
2017-11-17T13:18:17.001Z,35.55
2017-11-17T13:20:46.255Z,41.15
2017-11-17T13:23:20.424Z,40.40
2017-11-17T13:25:49.690Z,36.40
2017-11-17T13:28:23.384Z,42.90
2017-11-17T13:30:52.665Z,38.55
2017-11-17T13:33:21.970Z,40.10
2017-11-17T13:35:51.237Z,41.83
2017-11-17T13:38:20.497Z,39.72
2017-11-17T13:40:49.774Z,43.50
2017-11-17T13:43:19.092Z,43.10
2017-11-17T13:45:48.360Z,40.92
2017-11-17T13:48:17.693Z,40.28
2017-11-17T13:50:46.937Z,39.45
2017-11-17T13:53:16.275Z,39.55
2017-11-17T13:55:45.613Z,37.60
2017-11-17T13:58:15.653Z,37.78
2017-11-17T14:00:44.959Z,40.80
2017-11-17T14:03:14.209Z,40.80
2017-11-17T14:05:43.472Z,38.30
2017-11-17T14:08:12.792Z,35.50
2017-11-17T14:10:42.016Z,37.45
2017-11-17T14:16:23.125Z,34.50
2017-11-17T14:19:01.669Z,34.55
2017-11-17T14:21:35.700Z,36.13
2017-11-17T14:24:09.082Z,34.53
2017-11-17T14:26:42.907Z,34.13
2017-11-17T14:29:13.791Z,36.20
2017-11-17T14:31:47.298Z,35.88
2017-11-17T14:34:20.344Z,33.67
2017-11-17T14:36:58.098Z,29.55
2017-11-17T14:39:36.373Z,27.90
2017-11-17T14:47:53.173Z,24.73
2017-11-17T14:50:26.038Z,26.05
2017-11-17T14:53:02.976Z,25.95
2017-11-17T14:55:38.176Z,25.95
2017-11-17T15:01:00.650Z,27.13
2017-11-17T15:06:16.705Z,28.27
2017-11-17T15:08:46.008Z,26.80
2017-11-17T15:11:15.267Z,26.95
2017-11-17T15:13:44.520Z,26.80
2017-11-17T15:16:14.545Z,28.40
2017-11-17T15:18:44.552Z,27.83
2017-11-17T15:21:14.586Z,26.83
2017-11-17T15:23:43.867Z,29.02
2017-11-17T15:26:13.102Z,28.48
2017-11-17T15:28:42.365Z,27.77
2017-11-17T15:31:11.597Z,29.45
2017-11-17T15:33:40.844Z,30.48
2017-11-17T15:36:10.100Z,27.98
2017-11-17T15:38:39.365Z,30.10
2017-11-17T15:41:08.612Z,27.58
2017-11-17T15:43:37.838Z,31.05
2017-11-17T15:46:07.100Z,29.33
2017-11-17T15:48:36.341Z,28.20
2017-11-17T15:51:05.605Z,30.80
2017-11-17T15:53:34.847Z,27.98
2017-11-17T15:56:04.088Z,31.87
2017-11-17T15:58:33.321Z,28.30
2017-11-17T16:01:02.593Z,28.30
2017-11-17T16:03:31.824Z,30.23
2017-11-17T16:06:01.083Z,28.05
2017-11-17T16:08:30.369Z,28.00
2017-11-17T16:10:59.803Z,28.55
2017-11-17T16:13:29.052Z,29.17
2017-11-17T16:15:58.349Z,30.48
2017-11-17T16:18:27.592Z,28.65
2017-11-17T16:20:56.821Z,28.33
2017-11-17T16:23:26.086Z,28.42
2017-11-17T16:25:55.317Z,27.27
2017-11-17T16:28:24.561Z,27.92
2017-11-17T16:30:54.596Z,26.73
2017-11-17T16:33:23.856Z,29.52
2017-11-17T16:35:53.093Z,28.33
2017-11-17T16:38:23.103Z,27.40
2017-11-17T16:40:53.104Z,29.45
2017-11-17T16:43:22.354Z,27.92
2017-11-17T16:45:51.634Z,28.92
2017-11-17T16:48:21.654Z,27.40
2017-11-17T16:50:51.679Z,28.10
2017-11-17T16:53:21.005Z,26.80
2017-11-17T16:55:50.284Z,26.45
2017-11-17T16:58:19.558Z,25.67
2017-11-17T17:00:50.917Z,26.95
2017-11-17T17:03:20.939Z,25.27
2017-11-17T17:05:50.951Z,26.35
2017-11-17T17:08:20.204Z,26.33
2017-11-17T17:10:49.475Z,25.27
2017-11-17T17:13:18.759Z,27.20
2017-11-17T17:15:48.009Z,25.35
2017-11-17T17:18:17.261Z,31.50
2017-11-17T17:20:46.529Z,26.45
2017-11-17T17:23:15.769Z,28.48
2017-11-17T17:25:45.012Z,30.10
2017-11-17T17:28:14.268Z,28.70
2017-11-17T17:30:43.513Z,28.05
2017-11-17T17:33:12.851Z,27.58
2017-11-17T17:35:42.127Z,28.90
2017-11-17T17:38:11.373Z,26.67
2017-11-17T17:40:41.420Z,28.05
2017-11-17T17:43:10.661Z,30.65
2017-11-17T17:45:40.719Z,29.58
2017-11-17T17:48:09.975Z,31.83
2017-11-17T17:50:41.229Z,33.65
2017-11-17T17:53:11.240Z,36.83
2017-11-17T17:55:41.260Z,32.90
2017-11-17T17:58:11.276Z,56.37
2017-11-17T18:00:41.298Z,54.97
2017-11-17T18:03:12.137Z,35.42
2017-11-17T18:05:42.152Z,27.65
2017-11-17T18:08:12.180Z,26.87
2017-11-17T18:10:42.184Z,26.50
2017-11-17T18:13:12.209Z,28.15
2017-11-17T18:15:41.585Z,28.10
2017-11-17T18:18:10.830Z,27.85
2017-11-17T18:20:40.104Z,26.02
2017-11-17T18:23:10.138Z,26.50
2017-11-17T18:25:40.858Z,29.15
2017-11-17T18:28:10.127Z,26.73
2017-11-17T18:30:39.392Z,25.95
2017-11-17T18:33:08.632Z,23.20
2017-11-17T18:35:37.908Z,25.98
2017-11-17T18:38:07.188Z,25.52
2017-11-17T18:40:36.376Z,25.27
2017-11-17T18:43:05.629Z,27.45
2017-11-17T18:45:34.880Z,29.42
2017-11-17T18:51:25.930Z,26.00
2017-11-17T18:53:55.960Z,27.13
2017-11-17T18:56:25.195Z,27.25
2017-11-17T18:58:54.452Z,30.08
2017-11-17T19:01:24.469Z,30.15
2017-11-17T19:03:54.340Z,29.25
2017-11-17T19:06:24.348Z,26.55
2017-11-17T19:08:54.374Z,27.15
2017-11-17T19:11:23.607Z,29.25
2017-11-17T19:13:52.863Z,29.37
2017-11-17T19:16:22.107Z,28.62
2017-11-17T19:18:51.361Z,26.85
2017-11-17T19:21:20.817Z,28.77
2017-11-17T19:23:50.101Z,28.55
2017-11-17T19:26:19.488Z,27.95
2017-11-17T19:28:49.518Z,28.92
2017-11-17T19:31:18.764Z,30.27
2017-11-17T19:33:48.008Z,28.90
2017-11-17T19:36:18.088Z,29.67
2017-11-17T19:38:47.321Z,28.33
2017-11-17T19:41:19.375Z,27.67
2017-11-17T19:43:48.612Z,27.02
2017-11-17T19:46:18.642Z,28.52
2017-11-17T19:48:58.654Z,29.20
2017-11-17T19:51:27.893Z,28.87
2017-11-17T19:53:57.931Z,29.02
2017-11-17T19:56:39.337Z,29.20
2017-11-17T19:59:08.600Z,30.73
2017-11-17T20:01:37.876Z,28.85
2017-11-17T20:04:07.129Z,29.70
2017-11-17T20:06:36.371Z,29.17
2017-11-17T20:09:05.653Z,27.55
2017-11-17T20:11:35.662Z,28.50
2017-11-17T20:14:04.921Z,31.62
2017-11-17T20:16:34.173Z,31.80
2017-11-17T20:19:04.204Z,30.55
2017-11-17T20:21:34.223Z,31.40
2017-11-17T20:24:03.510Z,30.70
2017-11-17T20:26:33.512Z,30.98
2017-11-17T20:29:02.804Z,27.85
2017-11-17T20:31:32.038Z,30.12
2017-11-17T20:34:02.090Z,30.33
2017-11-17T20:36:31.334Z,31.98
2017-11-17T20:39:00.576Z,31.98
2017-11-17T20:41:30.597Z,30.90
2017-11-17T20:43:59.843Z,29.65
2017-11-17T20:46:29.115Z,29.90
2017-11-17T20:48:58.362Z,30.25
2017-11-17T20:51:28.422Z,28.95
2017-11-17T20:53:57.663Z,28.80
2017-11-17T20:56:28.530Z,30.50
2017-11-17T20:58:57.789Z,30.95
2017-11-17T21:01:27.045Z,30.27
2017-11-17T21:03:56.291Z,31.02
2017-11-17T21:06:25.554Z,32.00
2017-11-17T21:08:54.801Z,31.67
2017-11-17T21:11:24.066Z,32.33
2017-11-17T21:13:53.314Z,28.77
2017-11-17T21:16:23.325Z,30.15
2017-11-17T21:18:52.567Z,30.92
2017-11-17T21:21:21.816Z,30.95
2017-11-17T21:23:51.092Z,31.87
2017-11-17T21:26:20.349Z,28.30
2017-11-17T21:28:50.373Z,29.95
2017-11-17T21:31:19.627Z,33.97
2017-11-17T21:33:48.889Z,32.72
2017-11-17T21:36:18.192Z,34.25
2017-11-17T21:38:47.433Z,33.05
2017-11-17T21:41:16.692Z,32.35
2017-11-17T21:43:45.954Z,32.38
2017-11-17T21:46:15.205Z,33.80
2017-11-17T21:48:44.473Z,34.83
2017-11-17T21:51:13.732Z,33.13
2017-11-17T21:53:43.055Z,33.90
2017-11-17T21:56:12.267Z,34.30
2017-11-17T21:58:41.539Z,32.70
2017-11-17T22:01:10.975Z,33.30
2017-11-17T22:03:40.187Z,32.38
2017-11-17T22:06:09.449Z,32.45
2017-11-17T22:08:38.701Z,32.78
2017-11-17T22:11:07.945Z,32.78
2017-11-17T22:13:37.205Z,36.17
2017-11-17T22:16:06.461Z,35.08
2017-11-17T22:18:36.498Z,35.90
2017-11-17T22:21:05.748Z,36.55
2017-11-17T22:23:34.992Z,34.50
2017-11-17T22:26:04.286Z,35.78
2017-11-17T22:28:33.538Z,36.80
2017-11-17T22:31:02.796Z,34.00
2017-11-17T22:33:32.074Z,36.80
2017-11-17T22:36:02.084Z,37.85
2017-11-17T22:38:32.122Z,36.72
2017-11-17T22:41:01.378Z,35.80
2017-11-17T22:43:30.629Z,36.88
2017-11-17T22:45:59.893Z,37.30
2017-11-17T22:48:29.145Z,38.47
2017-11-17T22:50:58.427Z,35.13
2017-11-17T22:53:27.681Z,39.40
2017-11-17T22:55:56.925Z,35.08
2017-11-17T22:58:26.190Z,36.25
2017-11-17T23:00:55.461Z,39.95
2017-11-17T23:03:25.824Z,36.05
2017-11-17T23:05:55.143Z,33.80
2017-11-17T23:08:25.130Z,36.40
2017-11-17T23:10:54.386Z,32.42
2017-11-17T23:13:23.645Z,31.67
2017-11-17T23:15:53.708Z,34.80
2017-11-17T23:18:22.962Z,33.80
2017-11-17T23:20:52.217Z,36.05
2017-11-17T23:23:21.475Z,37.83
2017-11-17T23:25:51.485Z,35.75
2017-11-17T23:28:23.140Z,37.92
2017-11-17T23:30:53.166Z,36.30
2017-11-17T23:33:23.209Z,36.53
2017-11-17T23:35:52.479Z,34.20
2017-11-17T23:38:22.512Z,38.70
2017-11-17T23:40:51.765Z,34.60
2017-11-17T23:43:21.025Z,39.00
2017-11-17T23:45:50.291Z,33.95
2017-11-17T23:48:20.325Z,34.38
2017-11-17T23:50:49.582Z,38.60
2017-11-17T23:53:18.838Z,37.10
2017-11-17T23:55:48.084Z,37.03
2017-11-17T23:58:17.349Z,42.62
